createdAt,value
2022-08-05T00:00:16.982Z,28.56
2022-08-05T00:03:06.685Z,28.71
2022-08-05T00:06:05.388Z,28.42
2022-08-05T00:11:02.648Z,28.39
2022-08-05T00:13:38.260Z,28.21
2022-08-05T00:16:12.298Z,28.05
2022-08-05T00:18:45.472Z,28.14
2022-08-05T00:21:14.366Z,28.27
2022-08-05T00:23:46.141Z,28.08
2022-08-05T00:26:25.862Z,28.24
2022-08-05T00:28:53.819Z,27.89
2022-08-05T00:31:53.786Z,28.00
2022-08-05T00:34:54.966Z,27.97
2022-08-05T00:37:12.534Z,27.81
2022-08-05T00:39:57.321Z,27.78
2022-08-05T00:42:33.918Z,27.84
2022-08-05T00:45:03.342Z,27.70
2022-08-05T00:47:56.925Z,27.76
2022-08-05T00:50:28.861Z,27.77
2022-08-05T00:52:57.884Z,27.56
2022-08-05T00:55:42.393Z,27.57
2022-08-05T00:58:12.463Z,27.55
2022-08-05T01:00:42.275Z,27.84
2022-08-05T01:03:22.199Z,27.50
2022-08-05T01:08:42.369Z,27.46
2022-08-05T01:11:22.181Z,27.49
2022-08-05T01:14:08.954Z,27.87
2022-08-05T01:16:50.122Z,27.42
2022-08-05T01:19:56.470Z,27.53
2022-08-05T01:22:35.851Z,27.73
2022-08-05T01:25:40.563Z,27.49
2022-08-05T01:28:39.470Z,27.95
2022-08-05T01:31:13.229Z,27.32
2022-08-05T01:33:49.339Z,27.38
2022-08-05T01:36:28.190Z,27.36
2022-08-05T01:39:00.114Z,27.13
2022-08-05T01:41:33.990Z,27.13
2022-08-05T01:44:10.016Z,27.13
2022-08-05T01:46:41.968Z,27.02
2022-08-05T01:49:24.182Z,26.97
2022-08-05T01:51:58.224Z,26.89
2022-08-05T01:54:33.673Z,26.90
2022-08-05T01:58:11.969Z,26.85
2022-08-05T02:00:11.719Z,26.83
2022-08-05T02:02:46.570Z,26.84
2022-08-05T02:05:28.626Z,26.97
2022-08-05T02:08:00.343Z,26.86
2022-08-05T02:10:31.373Z,27.13
2022-08-05T02:13:15.724Z,26.92
2022-08-05T02:15:46.929Z,26.81
2022-08-05T02:18:30.821Z,26.76
2022-08-05T02:21:14.809Z,26.85
2022-08-05T02:23:45.940Z,26.63
2022-08-05T02:26:20.393Z,26.72
2022-08-05T02:28:50.616Z,27.84
2022-08-05T02:31:24.118Z,26.93
2022-08-05T02:33:58.059Z,26.73
2022-08-05T02:36:31.510Z,26.58
2022-08-05T02:39:02.272Z,26.57
2022-08-05T02:41:36.392Z,26.54
2022-08-05T02:44:24.405Z,26.52
2022-08-05T02:47:00.355Z,26.51
2022-08-05T02:49:35.653Z,26.53
2022-08-05T02:52:11.598Z,26.47
2022-08-05T02:54:50.715Z,26.42
2022-08-05T02:58:10.667Z,26.42
2022-08-05T03:00:12.636Z,26.42
2022-08-05T03:02:42.911Z,26.48
2022-08-05T03:05:15.502Z,26.49
2022-08-05T03:08:04.510Z,26.30
2022-08-05T03:10:32.726Z,26.35
2022-08-05T03:15:28.440Z,26.36
2022-08-05T03:18:00.152Z,28.05
2022-08-05T03:20:30.137Z,26.48
2022-08-05T03:22:59.278Z,26.39
2022-08-05T03:25:33.054Z,26.33
2022-08-05T03:28:18.492Z,26.32
2022-08-05T03:30:48.813Z,26.29
2022-08-05T03:33:17.822Z,26.20
2022-08-05T03:35:49.916Z,26.27
2022-08-05T03:38:23.870Z,26.17
2022-08-05T03:41:08.184Z,26.98
2022-08-05T03:44:08.533Z,26.09
2022-08-05T03:46:26.844Z,26.10
2022-08-05T03:48:59.273Z,26.15
2022-08-05T03:52:39.423Z,26.13
2022-08-05T03:55:34.025Z,27.16
2022-08-05T03:57:35.146Z,26.67
2022-08-05T04:00:15.594Z,27.54
2022-08-05T04:02:58.056Z,28.56
2022-08-05T04:05:33.651Z,27.80
2022-08-05T04:08:29.618Z,27.71
2022-08-05T04:10:58.633Z,26.76
2022-08-05T04:13:50.390Z,26.36
2022-08-05T04:16:24.940Z,26.33
2022-08-05T04:18:54.598Z,26.33
2022-08-05T04:22:10.079Z,26.32
2022-08-05T04:24:18.844Z,26.39
2022-08-05T04:26:50.506Z,26.37
2022-08-05T04:29:19.078Z,26.60
2022-08-05T04:34:19.236Z,27.29
2022-08-05T04:37:03.127Z,27.03
2022-08-05T04:42:01.880Z,27.07
2022-08-05T04:44:32.006Z,26.69
2022-08-05T04:47:08.891Z,26.76
2022-08-05T04:50:03.013Z,26.81
2022-08-05T04:52:28.073Z,26.69
2022-08-05T04:54:58.926Z,26.85
2022-08-05T04:57:47.569Z,26.88
2022-08-05T05:02:47.754Z,27.00
2022-08-05T05:05:28.476Z,27.06
2022-08-05T05:08:00.891Z,27.12
2022-08-05T05:10:33.071Z,27.40
2022-08-05T05:13:04.393Z,27.36
2022-08-05T05:15:56.359Z,27.42
2022-08-05T05:18:28.459Z,28.27
2022-08-05T05:21:03.795Z,27.60
2022-08-05T05:23:39.068Z,27.77
2022-08-05T05:26:28.046Z,27.76
2022-08-05T05:28:57.122Z,27.81
2022-08-05T05:31:25.515Z,28.21
2022-08-05T05:34:02.489Z,27.93
2022-08-05T05:36:31.636Z,28.27
2022-08-05T05:39:00.690Z,28.73
2022-08-05T05:41:40.488Z,28.35
2022-08-05T05:44:35.662Z,28.40
2022-08-05T05:47:04.342Z,28.31
2022-08-05T05:49:35.950Z,28.39
2022-08-05T05:52:07.262Z,28.56
2022-08-05T05:54:50.167Z,28.66
2022-08-05T05:57:21.999Z,28.65
2022-08-05T05:59:52.444Z,28.73
2022-08-05T06:02:32.356Z,28.75
2022-08-05T06:05:10.378Z,29.03
2022-08-05T06:07:57.511Z,28.90
2022-08-05T06:10:29.587Z,28.80
2022-08-05T06:13:05.886Z,29.03
2022-08-05T06:18:06.402Z,29.53
2022-08-05T06:20:34.305Z,29.35
2022-08-05T06:23:04.174Z,29.49
2022-08-05T06:26:12.259Z,29.60
2022-08-05T06:28:21.660Z,29.65
2022-08-05T06:30:51.584Z,29.85
2022-08-05T06:36:07.984Z,29.99
2022-08-05T06:38:36.753Z,30.07
2022-08-05T06:41:07.848Z,30.16
2022-08-05T06:43:58.622Z,30.16
2022-08-05T06:46:30.382Z,30.53
2022-08-05T06:49:01.224Z,30.36
2022-08-05T06:53:57.181Z,30.70
2022-08-05T06:56:26.586Z,30.92
2022-08-05T06:58:55.103Z,30.88
2022-08-05T07:01:23.841Z,31.22
2022-08-05T07:04:02.484Z,31.38
2022-08-05T07:06:31.839Z,31.36
2022-08-05T07:09:04.351Z,31.84
2022-08-05T07:11:37.114Z,31.86
2022-08-05T07:14:28.894Z,31.93
2022-08-05T07:17:59.724Z,31.99
2022-08-05T07:22:29.011Z,32.86
2022-08-05T07:25:23.147Z,32.50
2022-08-05T07:27:57.992Z,32.42
2022-08-05T07:30:43.246Z,32.49
2022-08-05T07:36:03.318Z,32.80
2022-08-05T07:38:43.482Z,32.88
2022-08-05T07:42:13.396Z,33.04
2022-08-05T07:44:14.359Z,35.33
2022-08-05T07:46:50.111Z,33.28
2022-08-05T07:49:19.955Z,33.36
2022-08-05T07:51:54.217Z,33.50
2022-08-05T07:54:31.579Z,33.53
2022-08-05T07:57:16.926Z,33.46
2022-08-05T07:59:50.936Z,33.56
2022-08-05T08:02:26.827Z,33.78
2022-08-05T08:04:59.852Z,34.13
2022-08-05T08:07:39.726Z,33.99
2022-08-05T08:10:23.361Z,34.07
2022-08-05T08:12:58.576Z,34.06
2022-08-05T08:15:37.279Z,34.24
2022-08-05T08:18:20.819Z,34.26
2022-08-05T08:21:01.885Z,34.34
2022-08-05T08:24:01.106Z,34.31
2022-08-05T08:26:26.795Z,34.32
2022-08-05T08:29:21.837Z,34.51
2022-08-05T08:31:48.863Z,34.60
2022-08-05T08:34:18.649Z,34.92
2022-08-05T08:36:55.704Z,34.76
2022-08-05T08:39:26.312Z,34.93
2022-08-05T08:45:23.704Z,35.00
2022-08-05T08:48:06.111Z,35.06
2022-08-05T08:50:31.634Z,35.12
2022-08-05T08:53:08.108Z,35.15
2022-08-05T08:56:04.543Z,35.19
2022-08-05T08:58:44.414Z,35.21
2022-08-05T09:01:21.357Z,35.28
2022-08-05T09:03:55.537Z,35.53
2022-08-05T09:06:29.912Z,38.65
2022-08-05T09:09:01.495Z,35.93
2022-08-05T09:11:52.400Z,35.77
2022-08-05T09:14:57.193Z,35.79
2022-08-05T09:17:39.900Z,35.75
2022-08-05T09:23:05.177Z,36.33
2022-08-05T09:26:03.017Z,36.05
2022-08-05T09:28:31.906Z,36.22
2022-08-05T09:31:18.178Z,36.33
2022-08-05T09:33:53.390Z,36.33
2022-08-05T09:36:27.633Z,36.77
2022-08-05T09:39:07.841Z,41.02
2022-08-05T09:42:04.259Z,36.92
2022-08-05T09:44:42.559Z,36.96
2022-08-05T09:47:15.810Z,37.56
2022-08-05T09:50:01.425Z,37.05
2022-08-05T09:52:34.097Z,37.34
2022-08-05T09:55:55.572Z,37.52
2022-08-05T09:57:58.567Z,37.26
2022-08-05T10:00:29.581Z,37.28
2022-08-05T10:03:08.809Z,37.15
2022-08-05T10:08:35.879Z,37.35
2022-08-05T10:10:57.890Z,37.44
2022-08-05T10:13:43.840Z,37.45
2022-08-05T10:16:32.155Z,37.63
2022-08-05T10:19:09.220Z,37.63
2022-08-05T10:21:39.923Z,37.70
2022-08-05T10:24:11.115Z,37.70
2022-08-05T10:26:51.593Z,37.98
2022-08-05T10:30:06.452Z,38.09
2022-08-05T10:32:56.258Z,38.19
2022-08-05T10:35:01.434Z,38.21
2022-08-05T10:37:40.448Z,38.29
2022-08-05T10:40:28.277Z,38.32
2022-08-05T10:48:39.577Z,38.49
2022-08-05T10:51:28.311Z,38.50
2022-08-05T10:53:58.382Z,38.33
2022-08-05T10:56:30.693Z,38.55
2022-08-05T10:59:12.255Z,38.83
2022-08-05T11:02:04.646Z,38.80
2022-08-05T11:04:44.302Z,38.91
2022-08-05T11:07:33.010Z,38.87
2022-08-05T11:10:23.129Z,39.20
2022-08-05T11:12:56.263Z,39.15
2022-08-05T11:16:00.874Z,39.18
2022-08-05T11:20:57.566Z,39.18
2022-08-05T11:24:02.622Z,39.33
2022-08-05T11:26:32.077Z,39.48
2022-08-05T11:29:11.532Z,40.49
2022-08-05T11:31:57.742Z,40.09
2022-08-05T11:34:54.328Z,39.77
2022-08-05T11:41:13.874Z,39.99
2022-08-05T11:44:07.606Z,40.05
2022-08-05T11:47:09.597Z,40.22
2022-08-05T11:49:26.321Z,40.28
2022-08-05T11:54:33.831Z,40.30
2022-08-05T11:57:08.270Z,40.87
2022-08-05T11:59:52.536Z,40.06
2022-08-05T12:02:30.740Z,40.29
2022-08-05T12:05:01.097Z,40.73
2022-08-05T12:08:08.073Z,40.44
2022-08-05T12:10:42.883Z,40.57
2022-08-05T12:13:17.281Z,40.82
2022-08-05T12:15:56.221Z,40.79
2022-08-05T12:18:32.812Z,40.78
2022-08-05T12:21:11.743Z,40.94
2022-08-05T12:23:53.125Z,41.06
2022-08-05T12:26:24.040Z,40.96
2022-08-05T12:28:53.060Z,40.79
2022-08-05T12:31:23.732Z,40.70
2022-08-05T12:34:03.145Z,40.81
2022-08-05T12:36:35.604Z,41.13
2022-08-05T12:39:07.036Z,41.16
2022-08-05T12:41:43.554Z,41.00
2022-08-05T12:44:14.266Z,41.22
2022-08-05T12:46:45.639Z,41.30
2022-08-05T12:49:15.273Z,41.34
2022-08-05T12:52:12.687Z,41.44
2022-08-05T12:54:51.382Z,41.60
2022-08-05T12:57:20.079Z,41.42
2022-08-05T13:01:57.319Z,41.68
2022-08-05T13:02:41.093Z,41.62
2022-08-05T13:05:11.170Z,41.77
2022-08-05T13:08:01.125Z,41.78
2022-08-05T13:10:35.011Z,41.80
2022-08-05T13:14:06.378Z,42.04
2022-08-05T13:16:17.922Z,42.03
2022-08-05T13:18:52.191Z,42.27
2022-08-05T13:21:28.474Z,43.12
2022-08-05T13:24:09.095Z,42.70
2022-08-05T13:26:37.434Z,42.66
2022-08-05T13:29:07.871Z,42.20
2022-08-05T13:32:04.145Z,42.19
2022-08-05T13:34:26.225Z,42.29
2022-08-05T13:36:54.799Z,42.37
2022-08-05T13:39:24.498Z,42.52
2022-08-05T13:42:14.746Z,42.40
2022-08-05T13:44:45.691Z,42.38
2022-08-05T13:47:35.817Z,42.42
2022-08-05T13:50:13.529Z,42.56
2022-08-05T13:52:45.460Z,42.66
2022-08-05T13:55:40.746Z,43.10
2022-08-05T13:58:11.902Z,43.09
2022-08-05T14:03:12.011Z,43.16
2022-08-05T14:06:04.830Z,43.20
2022-08-05T14:08:32.619Z,43.34
2022-08-05T14:11:19.746Z,43.26
2022-08-05T14:13:49.381Z,43.31
2022-08-05T14:16:25.016Z,43.38
2022-08-05T14:18:53.137Z,43.42
2022-08-05T14:22:08.591Z,43.53
2022-08-05T14:24:11.853Z,43.60
2022-08-05T14:27:02.107Z,43.47
2022-08-05T14:29:34.732Z,43.31
2022-08-05T14:32:13.778Z,43.31
2022-08-05T14:34:45.188Z,43.21
2022-08-05T14:37:14.123Z,43.31
2022-08-05T14:39:50.115Z,43.41
2022-08-05T14:42:26.991Z,43.44
2022-08-05T14:44:56.619Z,43.37
2022-08-05T14:48:03.645Z,43.28
2022-08-05T14:50:19.032Z,43.29
2022-08-05T14:52:53.485Z,43.37
2022-08-05T14:55:28.755Z,43.37
2022-08-05T14:58:11.966Z,43.23
2022-08-05T15:00:58.213Z,43.37
2022-08-05T15:03:33.930Z,43.46
2022-08-05T15:06:14.781Z,43.30
2022-08-05T15:09:01.210Z,43.52
2022-08-05T15:11:52.831Z,43.38
2022-08-05T15:14:35.937Z,43.49
2022-08-05T15:17:44.748Z,43.56
2022-08-05T15:20:03.996Z,43.60
2022-08-05T15:22:32.107Z,43.60
2022-08-05T15:25:13.817Z,43.63
2022-08-05T15:27:52.033Z,43.76
2022-08-05T15:30:20.507Z,43.82
2022-08-05T15:32:51.128Z,43.67
2022-08-05T15:35:21.986Z,43.71
2022-08-05T15:38:33.218Z,43.76
2022-08-05T15:40:58.612Z,43.85
2022-08-05T15:43:46.029Z,43.85
2022-08-05T15:46:15.476Z,43.99
2022-08-05T15:48:52.658Z,43.81
2022-08-05T15:52:12.428Z,43.74
2022-08-05T15:54:34.496Z,43.66
2022-08-05T15:57:03.763Z,43.58
2022-08-05T15:59:36.459Z,43.59
2022-08-05T16:02:14.682Z,43.75
2022-08-05T16:04:44.006Z,43.70
2022-08-05T16:07:19.466Z,43.65
2022-08-05T16:09:51.122Z,43.71
2022-08-05T16:12:23.280Z,43.82
2022-08-05T16:14:51.615Z,43.89
2022-08-05T16:17:20.328Z,43.94
2022-08-05T16:20:03.070Z,44.02
2022-08-05T16:22:35.676Z,44.01
2022-08-05T16:25:09.826Z,44.23
2022-08-05T16:27:59.988Z,44.10
2022-08-05T16:30:28.864Z,44.06
2022-08-05T16:32:58.141Z,44.11
2022-08-05T16:35:28.464Z,44.13
2022-08-05T16:38:21.879Z,44.15
2022-08-05T16:40:55.760Z,44.16
2022-08-05T16:43:31.817Z,44.87
2022-08-05T16:46:05.010Z,44.94
2022-08-05T16:48:38.892Z,44.18
2022-08-05T16:51:12.063Z,44.03
2022-08-05T16:54:04.706Z,44.00
2022-08-05T16:56:34.184Z,44.00
2022-08-05T16:59:07.523Z,44.17
2022-08-05T17:01:53.996Z,44.11
2022-08-05T17:04:26.044Z,44.27
2022-08-05T17:06:55.955Z,44.17
2022-08-05T17:12:00.501Z,44.08
2022-08-05T17:14:37.177Z,44.03
2022-08-05T17:17:14.151Z,44.09
2022-08-05T17:19:45.521Z,44.07
2022-08-05T17:22:17.728Z,44.07
2022-08-05T17:25:00.183Z,44.07
2022-08-05T17:27:33.376Z,43.94
2022-08-05T17:30:03.149Z,43.95
2022-08-05T17:32:33.773Z,43.91
2022-08-05T17:35:04.471Z,43.91
2022-08-05T17:37:40.298Z,44.17
2022-08-05T17:40:15.998Z,43.67
2022-08-05T17:42:51.311Z,43.49
2022-08-05T17:45:22.288Z,43.28
2022-08-05T17:50:28.952Z,42.94
2022-08-05T17:53:01.867Z,42.78
2022-08-05T17:55:37.147Z,42.48
2022-08-05T17:58:16.390Z,42.26
2022-08-05T18:00:50.708Z,42.12
2022-08-05T18:06:11.313Z,41.50
2022-08-05T18:08:44.447Z,41.20
2022-08-05T18:13:52.038Z,40.61
2022-08-05T18:16:21.070Z,40.32
2022-08-05T18:21:26.307Z,39.85
2022-08-05T18:24:00.122Z,39.60
2022-08-05T18:29:05.095Z,39.16
2022-08-05T18:31:43.121Z,38.94
2022-08-05T18:34:12.290Z,38.76
2022-08-05T18:36:43.535Z,38.69
2022-08-05T18:39:41.863Z,38.32
2022-08-05T18:42:11.505Z,38.28
2022-08-05T18:44:51.741Z,37.99
2022-08-05T18:47:28.113Z,37.77
2022-08-05T18:50:20.978Z,37.80
2022-08-05T18:53:20.592Z,37.80
2022-08-05T18:55:55.203Z,37.22
2022-08-05T18:58:30.154Z,37.10
2022-08-05T19:01:17.807Z,36.90
2022-08-05T19:03:53.318Z,36.77
2022-08-05T19:06:34.396Z,36.64
2022-08-05T19:09:16.942Z,36.48
2022-08-05T19:12:00.568Z,36.38
2022-08-05T19:14:59.313Z,36.33
2022-08-05T19:17:33.729Z,36.09
2022-08-05T19:20:16.821Z,36.09
2022-08-05T19:22:49.262Z,35.96
2022-08-05T19:25:29.553Z,35.85
2022-08-05T19:28:00.479Z,35.76
2022-08-05T19:30:31.331Z,35.62
2022-08-05T19:33:04.659Z,35.58
2022-08-05T19:35:56.524Z,35.48
2022-08-05T19:38:26.621Z,35.42
2022-08-05T19:40:56.456Z,35.30
2022-08-05T19:46:00.442Z,35.03
2022-08-05T19:48:32.893Z,35.03
2022-08-05T19:56:13.587Z,34.74
2022-08-05T19:59:51.150Z,34.67
2022-08-05T20:01:51.983Z,34.59
2022-08-05T20:04:22.369Z,34.51
2022-08-05T20:06:56.420Z,34.47
2022-08-05T20:09:53.662Z,34.46
2022-08-05T20:12:21.182Z,34.33
2022-08-05T20:14:53.413Z,34.20
2022-08-05T20:17:24.029Z,38.67
2022-08-05T20:19:57.650Z,34.43
2022-08-05T20:22:27.180Z,34.25
2022-08-05T20:25:01.783Z,34.25
2022-08-05T20:30:11.354Z,34.11
2022-08-05T20:32:45.604Z,33.94
2022-08-05T20:35:22.563Z,33.93
2022-08-05T20:38:05.758Z,33.87
2022-08-05T20:40:43.156Z,33.73
2022-08-05T20:43:12.747Z,33.73
2022-08-05T20:48:13.003Z,33.61
2022-08-05T20:50:47.077Z,33.55
2022-08-05T20:53:36.507Z,33.61
2022-08-05T20:56:09.470Z,33.41
2022-08-05T20:58:44.267Z,33.51
2022-08-05T21:01:37.153Z,33.41
2022-08-05T21:04:10.669Z,33.39
2022-08-05T21:09:11.569Z,33.44
2022-08-05T21:12:07.367Z,33.26
2022-08-05T21:14:38.341Z,33.30
2022-08-05T21:17:12.684Z,33.22
2022-08-05T21:19:47.907Z,33.17
2022-08-05T21:22:26.020Z,33.05
2022-08-05T21:25:03.364Z,32.97
2022-08-05T21:30:24.454Z,32.91
2022-08-05T21:33:07.144Z,33.11
2022-08-05T21:35:55.930Z,32.87
2022-08-05T21:38:32.195Z,32.77
2022-08-05T21:41:04.172Z,32.55
2022-08-05T21:43:41.715Z,31.06
2022-08-05T21:46:17.442Z,30.16
2022-08-05T21:48:56.716Z,30.19
2022-08-05T21:52:22.648Z,30.16
2022-08-05T21:54:14.238Z,30.40
2022-08-05T21:56:51.436Z,30.60
2022-08-05T21:59:25.049Z,30.86
2022-08-05T22:04:33.405Z,31.00
2022-08-05T22:07:02.414Z,31.00
2022-08-05T22:09:45.785Z,30.96
2022-08-05T22:12:15.425Z,31.09
2022-08-05T22:20:03.386Z,31.07
2022-08-05T22:23:03.561Z,31.34
2022-08-05T22:26:09.632Z,31.07
2022-08-05T22:28:41.335Z,31.06
2022-08-05T22:31:09.309Z,30.97
2022-08-05T22:33:55.397Z,31.00
2022-08-05T22:36:27.817Z,31.22
2022-08-05T22:39:04.205Z,31.68
2022-08-05T22:42:09.810Z,31.42
2022-08-05T22:44:31.269Z,30.88
2022-08-05T22:47:00.561Z,30.32
2022-08-05T22:50:18.361Z,30.11
2022-08-05T22:52:32.142Z,30.00
2022-08-05T22:55:18.599Z,30.02
2022-08-05T22:57:52.488Z,30.04
2022-08-05T23:00:22.455Z,29.95
2022-08-05T23:02:52.850Z,30.04
2022-08-05T23:07:53.828Z,29.88
2022-08-05T23:10:26.038Z,29.82
2022-08-05T23:12:55.876Z,30.04
2022-08-05T23:15:29.912Z,29.89
2022-08-05T23:18:15.849Z,29.75
2022-08-05T23:20:52.869Z,29.44
2022-08-05T23:23:21.413Z,29.48
2022-08-05T23:25:55.508Z,29.78
2022-08-05T23:28:28.783Z,29.48
2022-08-05T23:31:16.083Z,29.74
2022-08-05T23:34:04.197Z,29.27
2022-08-05T23:36:44.620Z,29.24
2022-08-05T23:39:17.660Z,29.68
2022-08-05T23:42:04.834Z,29.40
2022-08-05T23:44:42.609Z,29.74
2022-08-05T23:47:15.750Z,29.64
2022-08-05T23:49:56.695Z,29.68
2022-08-05T23:52:27.564Z,29.78
2022-08-05T23:54:58.560Z,29.80
2022-08-05T23:57:29.224Z,29.70
